Wallace, Canada
Current Conditions -  °F | °C
As of 6:00 AM on Sunday 23 Nov 2014 (Local Time) from CYYG Reporting Station
Snow Showers Snow Showers  
Wind Chill: 26°   Ceiling: 14000
Heat Index: 34°   Visibility: 15mi
Dew Point: 30°   Wind: 10mph
Humidity: 87%   Direction: 250°WSW
Pressure: 29.82"   Gusts: 17mph
Location:  45.8°N, 63.47°W
Report Text: CYYG 231000Z 25009G15KT 15SM -SHSN FEW006 SCT050 OVC140 01/M01 A2982 RMK SF1SC2AS5 PCPN VRY LGT SLP100
Loading
Personal Weather Stations






























Interactive Weather Map New forecast layout! Learn more

10-Day Weather Forecast

Advertisements
Track Severe Weather on mobile